sensor_id;sensor_type;location;lat;lon;timestamp;pressure;altitude;pressure_sealevel;temperature;humidity
40650;BME280;26342;42.826;23.992;2023-08-06T00:01:29;94256.72;;;22.27;87.03
40650;BME280;26342;42.826;23.992;2023-08-06T00:03:54;94254.94;;;22.35;87.51
40650;BME280;26342;42.826;23.992;2023-08-06T00:06:19;94258.78;;;22.34;88.49
40650;BME280;26342;42.826;23.992;2023-08-06T00:08:45;94261.81;;;22.28;89.68
40650;BME280;26342;42.826;23.992;2023-08-06T00:11:10;94261.88;;;22.32;88.91
40650;BME280;26342;42.826;23.992;2023-08-06T00:13:36;94249.56;;;22.38;88.19
40650;BME280;26342;42.826;23.992;2023-08-06T00:16:11;94262.81;;;22.40;88.14
40650;BME280;26342;42.826;23.992;2023-08-06T00:18:37;94276.41;;;22.40;88.21
40650;BME280;26342;42.826;23.992;2023-08-06T00:21:03;94273.03;;;22.27;88.62
40650;BME280;26342;42.826;23.992;2023-08-06T00:23:28;94286.75;;;22.34;88.66
40650;BME280;26342;42.826;23.992;2023-08-06T00:25:53;94272.84;;;22.36;89.37
40650;BME280;26342;42.826;23.992;2023-08-06T00:28:19;94265.53;;;22.40;90.56
40650;BME280;26342;42.826;23.992;2023-08-06T00:30:46;94268.09;;;22.33;93.04
40650;BME280;26342;42.826;23.992;2023-08-06T00:33:11;94270.75;;;22.29;94.23
40650;BME280;26342;42.826;23.992;2023-08-06T00:35:37;94256.59;;;22.20;97.16
40650;BME280;26342;42.826;23.992;2023-08-06T00:38:02;94251.59;;;22.22;99.24
40650;BME280;26342;42.826;23.992;2023-08-06T00:40:28;94245.38;;;22.21;100.00
40650;BME280;26342;42.826;23.992;2023-08-06T00:42:55;94236.72;;;22.16;100.00
40650;BME280;26342;42.826;23.992;2023-08-06T00:45:21;94231.22;;;22.12;100.00
40650;BME280;26342;42.826;23.992;2023-08-06T00:47:48;94226.75;;;22.04;100.00
40650;BME280;26342;42.826;23.992;2023-08-06T00:50:14;94211.41;;;21.96;100.00
40650;BME280;26342;42.826;23.992;2023-08-06T00:52:40;94212.41;;;21.88;100.00
40650;BME280;26342;42.826;23.992;2023-08-06T00:55:06;94231.63;;;21.79;100.00
40650;BME280;26342;42.826;23.992;2023-08-06T00:57:31;94201.34;;;21.77;100.00
40650;BME280;26342;42.826;23.992;2023-08-06T00:59:57;94195.69;;;21.86;100.00
40650;BME280;26342;42.826;23.992;2023-08-06T01:02:23;94200.91;;;21.75;100.00
40650;BME280;26342;42.826;23.992;2023-08-06T01:04:48;94204.19;;;21.65;100.00
40650;BME280;26342;42.826;23.992;2023-08-06T01:10:25;94178.38;;;21.55;100.00
40650;BME280;26342;42.826;23.992;2023-08-06T01:13:11;94177.38;;;21.44;100.00
40650;BME280;26342;42.826;23.992;2023-08-06T01:15:46;94165.13;;;21.34;100.00
40650;BME280;26342;42.826;23.992;2023-08-06T01:18:12;94155.44;;;21.33;100.00
40650;BME280;26342;42.826;23.992;2023-08-06T01:20:38;94161.19;;;21.32;100.00
40650;BME280;26342;42.826;23.992;2023-08-06T01:23:03;94160.66;;;21.26;100.00
40650;BME280;26342;42.826;23.992;2023-08-06T01:25:40;94169.78;;;21.18;100.00
40650;BME280;26342;42.826;23.992;2023-08-06T01:28:24;94184.47;;;21.17;100.00
40650;BME280;26342;42.826;23.992;2023-08-06T01:30:52;94178.34;;;21.20;100.00
40650;BME280;26342;42.826;23.992;2023-08-06T01:33:21;94167.53;;;21.04;100.00
40650;BME280;26342;42.826;23.992;2023-08-06T01:35:49;94152.75;;;20.86;100.00
40650;BME280;26342;42.826;23.992;2023-08-06T01:38:15;94152.03;;;20.89;100.00
40650;BME280;26342;42.826;23.992;2023-08-06T01:40:41;94152.03;;;20.89;100.00
40650;BME280;26342;42.826;23.992;2023-08-06T01:43:06;94154.41;;;20.90;100.00
40650;BME280;26342;42.826;23.992;2023-08-06T01:45:32;94132.91;;;20.82;100.00
40650;BME280;26342;42.826;23.992;2023-08-06T01:47:57;94142.78;;;20.90;100.00
40650;BME280;26342;42.826;23.992;2023-08-06T01:50:22;94136.56;;;20.89;100.00
40650;BME280;26342;42.826;23.992;2023-08-06T01:52:48;94134.28;;;20.91;100.00
40650;BME280;26342;42.826;23.992;2023-08-06T01:55:13;94140.06;;;20.90;100.00
40650;BME280;26342;42.826;23.992;2023-08-06T01:57:39;94132.72;;;20.90;100.00
40650;BME280;26342;42.826;23.992;2023-08-06T02:00:04;94136.81;;;20.84;100.00
40650;BME280;26342;42.826;23.992;2023-08-06T02:02:30;94117.00;;;20.80;100.00
40650;BME280;26342;42.826;23.992;2023-08-06T02:04:55;94116.47;;;20.75;100.00
40650;BME280;26342;42.826;23.992;2023-08-06T02:07:23;94112.25;;;20.77;100.00
40650;BME280;26342;42.826;23.992;2023-08-06T02:09:48;94123.81;;;20.74;100.00
40650;BME280;26342;42.826;23.992;2023-08-06T02:12:14;94110.19;;;20.71;100.00
40650;BME280;26342;42.826;23.992;2023-08-06T02:14:39;94094.88;;;20.78;100.00
40650;BME280;26342;42.826;23.992;2023-08-06T02:17:05;94104.03;;;20.89;100.00
40650;BME280;26342;42.826;23.992;2023-08-06T02:19:30;94117.59;;;20.89;100.00
40650;BME280;26342;42.826;23.992;2023-08-06T02:21:56;94099.84;;;20.76;100.00
40650;BME280;26342;42.826;23.992;2023-08-06T02:24:21;94114.88;;;20.89;100.00
40650;BME280;26342;42.826;23.992;2023-08-06T02:26:47;94113.56;;;20.83;100.00
40650;BME280;26342;42.826;23.992;2023-08-06T02:29:16;94105.97;;;20.73;100.00
40650;BME280;26342;42.826;23.992;2023-08-06T02:31:41;94116.03;;;20.73;100.00
40650;BME280;26342;42.826;23.992;2023-08-06T02:34:07;94107.66;;;20.62;100.00
40650;BME280;26342;42.826;23.992;2023-08-06T02:36:32;94118.81;;;20.60;100.00
40650;BME280;26342;42.826;23.992;2023-08-06T02:38:58;94134.84;;;20.66;100.00
40650;BME280;26342;42.826;23.992;2023-08-06T02:41:23;94124.88;;;20.54;100.00
40650;BME280;26342;42.826;23.992;2023-08-06T02:43:48;94132.38;;;20.60;100.00
40650;BME280;26342;42.826;23.992;2023-08-06T02:46:14;94120.25;;;20.54;100.00
40650;BME280;26342;42.826;23.992;2023-08-06T02:48:39;94116.03;;;20.57;100.00
40650;BME280;26342;42.826;23.992;2023-08-06T02:51:04;94106.34;;;20.56;100.00
40650;BME280;26342;42.826;23.992;2023-08-06T02:53:30;94119.00;;;20.52;100.00
40650;BME280;26342;42.826;23.992;2023-08-06T02:55:56;94129.91;;;20.40;100.00
40650;BME280;26342;42.826;23.992;2023-08-06T02:58:22;94128.16;;;20.31;100.00
40650;BME280;26342;42.826;23.992;2023-08-06T03:01:04;94135.00;;;20.13;100.00
40650;BME280;26342;42.826;23.992;2023-08-06T03:03:33;94142.16;;;20.05;100.00
40650;BME280;26342;42.826;23.992;2023-08-06T03:06:00;94138.00;;;20.08;100.00
40650;BME280;26342;42.826;23.992;2023-08-06T03:08:25;94130.91;;;20.03;100.00
40650;BME280;26342;42.826;23.992;2023-08-06T03:10:51;94148.50;;;19.97;100.00
40650;BME280;26342;42.826;23.992;2023-08-06T03:13:17;94115.06;;;20.05;100.00
40650;BME280;26342;42.826;23.992;2023-08-06T03:15:43;94118.56;;;20.06;100.00
40650;BME280;26342;42.826;23.992;2023-08-06T03:18:08;94141.63;;;20.00;100.00
40650;BME280;26342;42.826;23.992;2023-08-06T03:20:34;94122.78;;;20.03;100.00
40650;BME280;26342;42.826;23.992;2023-08-06T03:22:59;94127.63;;;19.98;100.00
40650;BME280;26342;42.826;23.992;2023-08-06T03:25:25;94126.84;;;19.97;100.00
40650;BME280;26342;42.826;23.992;2023-08-06T03:27:50;94127.19;;;19.96;100.00
40650;BME280;26342;42.826;23.992;2023-08-06T03:30:15;94114.72;;;19.91;100.00
40650;BME280;26342;42.826;23.992;2023-08-06T03:32:41;94119.94;;;19.84;100.00
40650;BME280;26342;42.826;23.992;2023-08-06T03:35:06;94114.75;;;19.79;100.00
40650;BME280;26342;42.826;23.992;2023-08-06T03:37:32;94125.94;;;19.77;100.00
40650;BME280;26342;42.826;23.992;2023-08-06T03:39:57;94125.03;;;19.73;100.00
40650;BME280;26342;42.826;23.992;2023-08-06T03:42:23;94132.69;;;19.84;100.00
40650;BME280;26342;42.826;23.992;2023-08-06T03:44:48;94124.88;;;19.82;100.00
40650;BME280;26342;42.826;23.992;2023-08-06T03:47:14;94118.47;;;19.87;100.00
40650;BME280;26342;42.826;23.992;2023-08-06T03:49:39;94113.94;;;19.91;100.00
40650;BME280;26342;42.826;23.992;2023-08-06T03:52:05;94124.06;;;19.94;100.00
40650;BME280;26342;42.826;23.992;2023-08-06T03:54:31;94122.50;;;19.93;100.00
40650;BME280;26342;42.826;23.992;2023-08-06T03:56:56;94112.13;;;19.83;100.00
40650;BME280;26342;42.826;23.992;2023-08-06T03:59:21;94112.97;;;19.83;100.00
40650;BME280;26342;42.826;23.992;2023-08-06T04:01:47;94097.66;;;19.75;100.00
40650;BME280;26342;42.826;23.992;2023-08-06T04:04:12;94094.63;;;19.64;100.00
40650;BME280;26342;42.826;23.992;2023-08-06T04:06:38;94085.50;;;19.69;100.00
40650;BME280;26342;42.826;23.992;2023-08-06T04:09:03;94098.47;;;19.63;100.00
40650;BME280;26342;42.826;23.992;2023-08-06T04:11:29;94144.59;;;19.55;100.00
40650;BME280;26342;42.826;23.992;2023-08-06T04:13:54;94200.19;;;19.52;100.00
40650;BME280;26342;42.826;23.992;2023-08-06T04:16:21;94185.53;;;19.53;100.00
40650;BME280;26342;42.826;23.992;2023-08-06T04:18:46;94187.88;;;19.55;100.00
40650;BME280;26342;42.826;23.992;2023-08-06T04:21:12;94148.00;;;19.39;100.00
40650;BME280;26342;42.826;23.992;2023-08-06T04:23:37;94159.19;;;19.25;100.00
40650;BME280;26342;42.826;23.992;2023-08-06T04:26:03;94149.63;;;19.28;100.00
40650;BME280;26342;42.826;23.992;2023-08-06T04:28:28;94121.53;;;19.33;100.00
40650;BME280;26342;42.826;23.992;2023-08-06T04:30:54;94117.91;;;19.41;100.00
40650;BME280;26342;42.826;23.992;2023-08-06T04:33:20;94122.66;;;19.32;100.00
40650;BME280;26342;42.826;23.992;2023-08-06T04:35:45;94135.63;;;19.38;100.00
40650;BME280;26342;42.826;23.992;2023-08-06T04:38:11;94146.75;;;19.49;100.00
40650;BME280;26342;42.826;23.992;2023-08-06T04:40:36;94145.84;;;19.57;100.00
40650;BME280;26342;42.826;23.992;2023-08-06T04:43:02;94159.63;;;19.40;100.00
40650;BME280;26342;42.826;23.992;2023-08-06T04:45:28;94174.19;;;19.23;100.00
40650;BME280;26342;42.826;23.992;2023-08-06T04:47:53;94172.63;;;19.22;100.00
40650;BME280;26342;42.826;23.992;2023-08-06T04:50:21;94188.06;;;19.09;100.00
40650;BME280;26342;42.826;23.992;2023-08-06T04:52:47;94169.69;;;19.15;100.00
40650;BME280;26342;42.826;23.992;2023-08-06T04:55:12;94143.44;;;19.15;100.00
40650;BME280;26342;42.826;23.992;2023-08-06T04:57:37;94124.06;;;19.13;100.00
40650;BME280;26342;42.826;23.992;2023-08-06T05:00:03;94120.59;;;19.13;100.00
40650;BME280;26342;42.826;23.992;2023-08-06T05:02:29;94112.91;;;19.15;100.00
40650;BME280;26342;42.826;23.992;2023-08-06T05:04:57;94083.50;;;19.13;100.00
40650;BME280;26342;42.826;23.992;2023-08-06T05:07:22;94063.44;;;19.14;100.00
40650;BME280;26342;42.826;23.992;2023-08-06T05:09:48;94077.19;;;19.21;100.00
40650;BME280;26342;42.826;23.992;2023-08-06T05:12:13;94080.09;;;19.29;100.00
40650;BME280;26342;42.826;23.992;2023-08-06T05:14:39;94081.31;;;19.31;100.00
40650;BME280;26342;42.826;23.992;2023-08-06T05:17:04;94083.00;;;19.36;100.00
40650;BME280;26342;42.826;23.992;2023-08-06T05:19:30;94093.34;;;19.46;100.00
40650;BME280;26342;42.826;23.992;2023-08-06T05:21:55;94107.41;;;19.51;100.00
40650;BME280;26342;42.826;23.992;2023-08-06T05:24:20;94089.09;;;19.33;100.00
40650;BME280;26342;42.826;23.992;2023-08-06T05:26:46;94066.44;;;19.25;100.00
40650;BME280;26342;42.826;23.992;2023-08-06T05:29:12;94065.88;;;19.32;100.00
40650;BME280;26342;42.826;23.992;2023-08-06T05:31:38;94060.91;;;19.34;100.00
40650;BME280;26342;42.826;23.992;2023-08-06T05:34:03;94059.53;;;19.40;100.00
40650;BME280;26342;42.826;23.992;2023-08-06T05:36:29;94027.63;;;19.45;100.00
40650;BME280;26342;42.826;23.992;2023-08-06T05:38:54;94037.41;;;19.50;100.00
40650;BME280;26342;42.826;23.992;2023-08-06T05:41:19;94053.53;;;19.46;100.00
40650;BME280;26342;42.826;23.992;2023-08-06T05:43:45;94066.94;;;19.43;100.00
40650;BME280;26342;42.826;23.992;2023-08-06T05:46:10;94087.91;;;19.46;100.00
40650;BME280;26342;42.826;23.992;2023-08-06T05:48:36;94092.97;;;19.47;100.00
40650;BME280;26342;42.826;23.992;2023-08-06T05:51:01;94106.75;;;19.42;100.00
40650;BME280;26342;42.826;23.992;2023-08-06T05:53:27;94101.59;;;19.37;100.00
40650;BME280;26342;42.826;23.992;2023-08-06T05:55:52;94092.78;;;19.40;100.00
40650;BME280;26342;42.826;23.992;2023-08-06T05:58:18;94086.50;;;19.36;100.00
40650;BME280;26342;42.826;23.992;2023-08-06T06:00:45;94090.84;;;19.41;100.00
40650;BME280;26342;42.826;23.992;2023-08-06T06:03:10;94097.97;;;19.45;100.00
40650;BME280;26342;42.826;23.992;2023-08-06T06:05:38;94094.19;;;19.50;100.00
40650;BME280;26342;42.826;23.992;2023-08-06T06:08:04;94098.25;;;19.56;100.00
40650;BME280;26342;42.826;23.992;2023-08-06T06:10:29;94097.63;;;19.59;100.00
40650;BME280;26342;42.826;23.992;2023-08-06T06:12:55;94101.22;;;19.79;100.00
40650;BME280;26342;42.826;23.992;2023-08-06T06:15:20;94115.16;;;19.93;100.00
40650;BME280;26342;42.826;23.992;2023-08-06T06:17:46;94120.31;;;19.98;100.00
40650;BME280;26342;42.826;23.992;2023-08-06T06:20:11;94121.78;;;19.96;100.00
40650;BME280;26342;42.826;23.992;2023-08-06T06:22:37;94114.84;;;19.83;100.00
40650;BME280;26342;42.826;23.992;2023-08-06T06:25:02;94117.66;;;19.86;100.00
40650;BME280;26342;42.826;23.992;2023-08-06T06:27:28;94114.06;;;19.82;100.00
40650;BME280;26342;42.826;23.992;2023-08-06T06:29:54;94119.41;;;19.78;100.00
40650;BME280;26342;42.826;23.992;2023-08-06T06:32:20;94113.03;;;19.87;100.00
40650;BME280;26342;42.826;23.992;2023-08-06T06:34:46;94112.38;;;20.05;100.00
40650;BME280;26342;42.826;23.992;2023-08-06T06:37:11;94109.66;;;20.05;100.00
40650;BME280;26342;42.826;23.992;2023-08-06T06:39:36;94103.47;;;20.05;100.00
40650;BME280;26342;42.826;23.992;2023-08-06T06:42:02;94104.97;;;20.18;100.00
40650;BME280;26342;42.826;23.992;2023-08-06T06:44:27;94103.66;;;20.28;100.00
40650;BME280;26342;42.826;23.992;2023-08-06T06:46:53;94124.13;;;20.41;100.00
40650;BME280;26342;42.826;23.992;2023-08-06T06:49:18;94120.94;;;20.51;100.00
40650;BME280;26342;42.826;23.992;2023-08-06T06:51:43;94122.59;;;20.56;100.00
40650;BME280;26342;42.826;23.992;2023-08-06T06:54:09;94125.13;;;20.65;100.00
40650;BME280;26342;42.826;23.992;2023-08-06T06:56:34;94125.66;;;20.70;100.00
40650;BME280;26342;42.826;23.992;2023-08-06T06:59:00;94135.88;;;20.77;100.00
40650;BME280;26342;42.826;23.992;2023-08-06T07:01:25;94155.00;;;20.84;100.00
40650;BME280;26342;42.826;23.992;2023-08-06T07:03:51;94147.84;;;20.76;100.00
40650;BME280;26342;42.826;23.992;2023-08-06T07:06:16;94145.84;;;20.73;100.00
40650;BME280;26342;42.826;23.992;2023-08-06T07:08:44;94156.09;;;20.79;100.00
40650;BME280;26342;42.826;23.992;2023-08-06T07:11:09;94154.41;;;20.90;100.00
40650;BME280;26342;42.826;23.992;2023-08-06T07:13:35;94153.16;;;21.04;100.00
40650;BME280;26342;42.826;23.992;2023-08-06T07:16:01;94137.22;;;21.18;100.00
40650;BME280;26342;42.826;23.992;2023-08-06T07:18:27;94134.06;;;21.32;100.00
40650;BME280;26342;42.826;23.992;2023-08-06T07:20:53;94124.72;;;21.49;100.00
40650;BME280;26342;42.826;23.992;2023-08-06T07:23:21;94124.53;;;21.57;100.00
40650;BME280;26342;42.826;23.992;2023-08-06T07:25:47;94131.03;;;21.72;100.00
40650;BME280;26342;42.826;23.992;2023-08-06T07:28:13;94133.97;;;21.83;100.00
40650;BME280;26342;42.826;23.992;2023-08-06T07:30:40;94141.09;;;21.91;100.00
40650;BME280;26342;42.826;23.992;2023-08-06T07:33:06;94153.59;;;21.95;100.00
40650;BME280;26342;42.826;23.992;2023-08-06T07:35:32;94155.75;;;22.06;100.00
40650;BME280;26342;42.826;23.992;2023-08-06T07:37:57;94158.47;;;22.06;100.00
40650;BME280;26342;42.826;23.992;2023-08-06T07:40:23;94159.72;;;22.08;100.00
40650;BME280;26342;42.826;23.992;2023-08-06T07:42:48;94162.25;;;22.01;100.00
40650;BME280;26342;42.826;23.992;2023-08-06T07:45:14;94153.41;;;22.04;100.00
40650;BME280;26342;42.826;23.992;2023-08-06T07:47:39;94163.13;;;22.05;100.00
40650;BME280;26342;42.826;23.992;2023-08-06T07:50:05;94156.53;;;22.06;100.00
40650;BME280;26342;42.826;23.992;2023-08-06T07:52:31;94174.94;;;22.13;100.00
40650;BME280;26342;42.826;23.992;2023-08-06T07:54:56;94162.34;;;22.05;100.00
40650;BME280;26342;42.826;23.992;2023-08-06T07:57:22;94170.63;;;22.12;100.00
40650;BME280;26342;42.826;23.992;2023-08-06T07:59:47;94161.56;;;22.04;100.00
40650;BME280;26342;42.826;23.992;2023-08-06T08:02:12;94155.75;;;22.06;100.00
40650;BME280;26342;42.826;23.992;2023-08-06T08:04:38;94139.63;;;22.13;100.00
40650;BME280;26342;42.826;23.992;2023-08-06T08:07:04;94157.03;;;22.31;100.00
40650;BME280;26342;42.826;23.992;2023-08-06T08:09:29;94159.94;;;22.42;100.00
40650;BME280;26342;42.826;23.992;2023-08-06T08:11:55;94149.63;;;22.51;100.00
40650;BME280;26342;42.826;23.992;2023-08-06T08:14:20;94157.84;;;22.54;100.00
40650;BME280;26342;42.826;23.992;2023-08-06T08:16:46;94152.03;;;22.56;100.00
40650;BME280;26342;42.826;23.992;2023-08-06T08:19:12;94144.75;;;22.60;100.00
40650;BME280;26342;42.826;23.992;2023-08-06T08:21:37;94155.19;;;22.81;100.00
40650;BME280;26342;42.826;23.992;2023-08-06T08:24:04;94143.41;;;22.96;100.00
40650;BME280;26342;42.826;23.992;2023-08-06T08:26:30;94142.44;;;23.08;100.00
40650;BME280;26342;42.826;23.992;2023-08-06T08:28:56;94148.63;;;23.31;100.00
40650;BME280;26342;42.826;23.992;2023-08-06T08:31:22;94150.41;;;23.47;100.00
40650;BME280;26342;42.826;23.992;2023-08-06T08:33:47;94130.44;;;23.65;100.00
40650;BME280;26342;42.826;23.992;2023-08-06T08:36:13;94131.91;;;23.89;100.00
40650;BME280;26342;42.826;23.992;2023-08-06T08:38:39;94136.75;;;24.07;100.00
40650;BME280;26342;42.826;23.992;2023-08-06T08:41:04;94120.88;;;24.12;100.00
40650;BME280;26342;42.826;23.992;2023-08-06T08:43:30;94132.44;;;24.36;100.00
40650;BME280;26342;42.826;23.992;2023-08-06T08:45:56;94129.81;;;24.46;100.00
40650;BME280;26342;42.826;23.992;2023-08-06T08:48:25;94126.03;;;24.58;100.00
40650;BME280;26342;42.826;23.992;2023-08-06T08:50:55;94123.00;;;24.67;100.00
40650;BME280;26342;42.826;23.992;2023-08-06T08:53:21;94126.63;;;24.82;100.00
40650;BME280;26342;42.826;23.992;2023-08-06T08:55:48;94126.28;;;24.87;100.00
40650;BME280;26342;42.826;23.992;2023-08-06T08:58:14;94122.56;;;25.09;100.00
40650;BME280;26342;42.826;23.992;2023-08-06T09:00:41;94120.44;;;25.36;100.00
40650;BME280;26342;42.826;23.992;2023-08-06T09:03:07;94118.78;;;25.21;100.00
40650;BME280;26342;42.826;23.992;2023-08-06T09:05:33;94106.03;;;25.46;100.00
40650;BME280;26342;42.826;23.992;2023-08-06T09:08:03;94103.75;;;25.52;100.00
40650;BME280;26342;42.826;23.992;2023-08-06T09:10:29;94091.72;;;25.71;100.00
40650;BME280;26342;42.826;23.992;2023-08-06T09:12:56;94092.56;;;25.82;100.00
40650;BME280;26342;42.826;23.992;2023-08-06T09:15:25;94099.59;;;25.83;100.00
40650;BME280;26342;42.826;23.992;2023-08-06T09:17:54;94104.16;;;25.57;100.00
40650;BME280;26342;42.826;23.992;2023-08-06T09:20:20;94101.34;;;25.43;100.00
40650;BME280;26342;42.826;23.992;2023-08-06T09:22:46;94101.28;;;25.32;100.00
40650;BME280;26342;42.826;23.992;2023-08-06T09:25:22;94105.19;;;25.31;100.00
40650;BME280;26342;42.826;23.992;2023-08-06T09:27:50;94100.78;;;25.13;100.00
40650;BME280;26342;42.826;23.992;2023-08-06T09:30:32;94110.94;;;25.16;100.00
40650;BME280;26342;42.826;23.992;2023-08-06T09:32:58;94101.13;;;25.08;100.00
40650;BME280;26342;42.826;23.992;2023-08-06T09:35:24;94104.41;;;25.34;100.00
40650;BME280;26342;42.826;23.992;2023-08-06T09:37:50;94103.44;;;25.68;100.00
40650;BME280;26342;42.826;23.992;2023-08-06T09:40:25;94102.72;;;25.81;100.00
40650;BME280;26342;42.826;23.992;2023-08-06T09:42:52;94108.13;;;25.71;100.00
40650;BME280;26342;42.826;23.992;2023-08-06T09:45:17;94108.00;;;25.49;100.00
40650;BME280;26342;42.826;23.992;2023-08-06T09:47:43;94103.72;;;25.48;100.00
40650;BME280;26342;42.826;23.992;2023-08-06T09:50:19;94115.81;;;25.47;100.00
40650;BME280;26342;42.826;23.992;2023-08-06T09:52:45;94120.06;;;25.41;100.00
40650;BME280;26342;42.826;23.992;2023-08-06T09:55:12;94122.72;;;25.30;100.00
40650;BME280;26342;42.826;23.992;2023-08-06T09:57:40;94122.19;;;25.07;100.00
40650;BME280;26342;42.826;23.992;2023-08-06T10:00:07;94128.81;;;25.10;100.00
40650;BME280;26342;42.826;23.992;2023-08-06T10:02:35;94130.56;;;24.88;100.00
40650;BME280;26342;42.826;23.992;2023-08-06T10:05:02;94133.59;;;24.79;100.00
40650;BME280;26342;42.826;23.992;2023-08-06T10:07:30;94137.38;;;25.08;100.00
40650;BME280;26342;42.826;23.992;2023-08-06T10:09:55;94134.78;;;25.22;100.00
40650;BME280;26342;42.826;23.992;2023-08-06T10:12:22;94144.91;;;25.22;100.00
40650;BME280;26342;42.826;23.992;2023-08-06T10:14:48;94143.63;;;25.05;100.00
40650;BME280;26342;42.826;23.992;2023-08-06T10:17:15;94150.03;;;24.86;100.00
40650;BME280;26342;42.826;23.992;2023-08-06T10:19:42;94147.06;;;24.58;100.00
40650;BME280;26342;42.826;23.992;2023-08-06T10:24:56;94152.19;;;24.29;100.00
40650;BME280;26342;42.826;23.992;2023-08-06T10:32:51;94146.47;;;24.04;100.00
40650;BME280;26342;42.826;23.992;2023-08-06T10:35:38;94155.38;;;24.01;100.00
40650;BME280;26342;42.826;23.992;2023-08-06T10:38:11;94149.41;;;23.88;100.00
40650;BME280;26342;42.826;23.992;2023-08-06T10:40:39;94155.91;;;23.80;100.00
40650;BME280;26342;42.826;23.992;2023-08-06T10:43:05;94165.94;;;23.73;100.00
40650;BME280;26342;42.826;23.992;2023-08-06T10:45:36;94166.66;;;23.70;100.00
40650;BME280;26342;42.826;23.992;2023-08-06T10:48:03;94169.34;;;23.66;100.00
40650;BME280;26342;42.826;23.992;2023-08-06T10:50:30;94168.94;;;23.64;100.00
40650;BME280;26342;42.826;23.992;2023-08-06T10:52:57;94175.09;;;23.61;100.00
40650;BME280;26342;42.826;23.992;2023-08-06T10:57:49;94170.56;;;23.46;100.00
40650;BME280;26342;42.826;23.992;2023-08-06T11:00:15;94174.25;;;23.57;100.00
40650;BME280;26342;42.826;23.992;2023-08-06T11:02:41;94187.81;;;23.80;100.00
40650;BME280;26342;42.826;23.992;2023-08-06T11:05:10;94176.13;;;23.79;100.00
40650;BME280;26342;42.826;23.992;2023-08-06T11:07:36;94183.94;;;23.81;100.00
40650;BME280;26342;42.826;23.992;2023-08-06T11:12:29;94175.00;;;23.84;100.00
40650;BME280;26342;42.826;23.992;2023-08-06T11:14:54;94176.47;;;23.74;100.00
40650;BME280;26342;42.826;23.992;2023-08-06T11:17:21;94186.34;;;23.86;100.00
40650;BME280;26342;42.826;23.992;2023-08-06T11:19:46;94182.88;;;23.89;100.00
40650;BME280;26342;42.826;23.992;2023-08-06T11:22:12;94182.41;;;23.83;100.00
40650;BME280;26342;42.826;23.992;2023-08-06T11:24:39;94184.66;;;23.78;100.00
40650;BME280;26342;42.826;23.992;2023-08-06T11:27:14;94197.09;;;23.75;100.00
40650;BME280;26342;42.826;23.992;2023-08-06T11:29:41;94185.31;;;23.67;100.00
40650;BME280;26342;42.826;23.992;2023-08-06T11:32:08;94197.72;;;23.65;100.00
40650;BME280;26342;42.826;23.992;2023-08-06T11:34:34;94189.81;;;23.56;100.00
40650;BME280;26342;42.826;23.992;2023-08-06T11:37:00;94185.41;;;23.48;100.00
40650;BME280;26342;42.826;23.992;2023-08-06T11:39:28;94189.19;;;23.40;100.00
40650;BME280;26342;42.826;23.992;2023-08-06T11:41:54;94206.44;;;23.25;100.00
40650;BME280;26342;42.826;23.992;2023-08-06T11:44:19;94205.13;;;23.15;100.00
40650;BME280;26342;42.826;23.992;2023-08-06T11:46:55;94205.03;;;23.08;100.00
40650;BME280;26342;42.826;23.992;2023-08-06T11:52:09;94212.31;;;23.04;100.00
40650;BME280;26342;42.826;23.992;2023-08-06T11:54:34;94213.00;;;22.97;100.00
40650;BME280;26342;42.826;23.992;2023-08-06T11:57:02;94209.94;;;22.99;100.00
40650;BME280;26342;42.826;23.992;2023-08-06T11:59:28;94208.44;;;23.05;100.00
40650;BME280;26342;42.826;23.992;2023-08-06T12:01:53;94213.53;;;23.06;100.00
40650;BME280;26342;42.826;23.992;2023-08-06T12:04:18;94209.22;;;23.05;100.00
40650;BME280;26342;42.826;23.992;2023-08-06T12:06:44;94206.59;;;23.09;100.00
40650;BME280;26342;42.826;23.992;2023-08-06T12:09:09;94210.88;;;23.10;100.00
40650;BME280;26342;42.826;23.992;2023-08-06T12:11:36;94209.84;;;23.18;100.00
40650;BME280;26342;42.826;23.992;2023-08-06T12:14:01;94206.56;;;23.32;100.00
40650;BME280;26342;42.826;23.992;2023-08-06T12:16:27;94210.88;;;23.36;100.00
40650;BME280;26342;42.826;23.992;2023-08-06T12:18:53;94204.50;;;23.52;100.00
40650;BME280;26342;42.826;23.992;2023-08-06T12:21:18;94213.91;;;23.54;100.00
40650;BME280;26342;42.826;23.992;2023-08-06T12:23:44;94203.72;;;23.51;100.00
40650;BME280;26342;42.826;23.992;2023-08-06T12:26:09;94213.53;;;23.56;100.00
40650;BME280;26342;42.826;23.992;2023-08-06T12:28:35;94210.16;;;23.62;100.00
40650;BME280;26342;42.826;23.992;2023-08-06T12:31:00;94203.22;;;23.68;100.00
40650;BME280;26342;42.826;23.992;2023-08-06T12:33:25;94206.41;;;23.74;100.00
40650;BME280;26342;42.826;23.992;2023-08-06T12:35:51;94197.56;;;23.81;100.00
40650;BME280;26342;42.826;23.992;2023-08-06T12:38:19;94202.75;;;23.93;100.00
40650;BME280;26342;42.826;23.992;2023-08-06T12:40:45;94195.66;;;23.85;100.00
40650;BME280;26342;42.826;23.992;2023-08-06T12:43:10;94189.06;;;23.86;100.00
40650;BME280;26342;42.826;23.992;2023-08-06T12:45:36;94202.81;;;23.97;100.00
40650;BME280;26342;42.826;23.992;2023-08-06T12:48:02;94199.72;;;23.98;100.00
40650;BME280;26342;42.826;23.992;2023-08-06T12:50:29;94209.06;;;23.97;100.00
40650;BME280;26342;42.826;23.992;2023-08-06T12:52:54;94207.34;;;23.85;100.00
40650;BME280;26342;42.826;23.992;2023-08-06T12:55:20;94213.84;;;23.77;100.00